Felker Army Air Field
KFAF : now visible

Airfield :











YOU CAN JOIN US ON...

 
LOGIN :

Register | Disclaimer

   EN    FR    IT 

 









Legend :    VFR   Marginal VFR   IFR   Intensive IFR   Very Intensive IFR
Visi :
Ceiling :
>= 8 km
>= 3000ft
5 to 8 km
1000 to 3000 ft
1500m to 5 km
500 to 1000 ft
800 to 1500m
200 to 500 ft
< 800m
< 200 ft
Symbols :   Thunderstorms  Fog  Heavy snow  Heavy precipitations  Wind > 20 kt






- Airport Elevation : 12 ft


KFAF - Felker Army Air Field

CURRENT METAR :
  • 142056Z AUTO 25008G14KT 10SM OVC017 13/08 A2942 RMK AO2 PRESRR SLP966 T01250078 53007 $

EXPIRED METARs :
  • 142016Z AUTO 23004KT 10SM OVC015 12/09 A2938 RMK AO2 SLP952 $
  • 141956Z AUTO 27004KT 10SM OVC014 12/09 A2938 RMK AO2 SLP952 T01220094 $
  • 141856Z AUTO 23004KT 10SM OVC011 11/09 A2939 RMK AO2 SLP956 T01130092 $

TAF TAF KFAF
Valid from the 13 at 19:00 until the 15 at 01:00 UTC


131900Z 1319/1501 02009KT 6000 -RA BR OVC005 QNH3005INS
BECMG 1321/1322 05006KT 4800 RA BKN003 QNH2973INS
BECMG 1405/1406 VRB03KT 8000 -RA BKN005 QNH2957INS
BECMG 1410/1411 21006KT 9999 NSW BKN010 QNH2947INS
BECMG 1421/1422 26012KT 9999 SCT015 QNH2954INS TX11/1416Z TN08/1319Z LAST NO AMDS AFT 1404 NEXT 1611



MET'MAP, your aeronautical weather chart ! - Copyright ORBIFLY December 2007 - Disclaimer

ORBIFLY MET'MAP TEAM :

Programming & Development : Alexandra Zaïnal
Concept & original design : Baudouin d'Aumeries
Assistance for programming : Marc-Olivier Méhu
Technical & hardware support : Manuel Goepfert

Contact : metmap@orbifly.com




SOURCES & CREDITS :

   NOAA       Earth
Advisory